createdAt,value
2023-02-15T00:01:49.108Z,20.90
2023-02-15T00:04:18.006Z,20.90
2023-02-15T00:06:44.722Z,20.90
2023-02-15T00:09:12.857Z,20.90
2023-02-15T00:11:52.025Z,20.90
2023-02-15T00:14:23.985Z,20.90
2023-02-15T00:16:53.045Z,20.90
2023-02-15T00:19:21.345Z,20.80
2023-02-15T00:21:49.156Z,20.90
2023-02-15T00:24:18.733Z,20.90
2023-02-15T00:26:46.146Z,20.80
2023-02-15T00:29:14.309Z,20.90
2023-02-15T00:31:41.323Z,20.90
2023-02-15T00:34:22.841Z,20.90
2023-02-15T00:36:50.468Z,20.90
2023-02-15T00:39:18.217Z,20.90
2023-02-15T00:41:45.739Z,20.80
2023-02-15T00:44:13.041Z,20.80
2023-02-15T00:46:39.715Z,20.80
2023-02-15T00:49:06.526Z,20.80
2023-02-15T00:51:33.827Z,20.80
2023-02-15T00:54:00.436Z,20.80
2023-02-15T00:56:29.202Z,20.80
2023-02-15T00:58:55.916Z,20.80
2023-02-15T01:01:22.996Z,20.80
2023-02-15T01:03:50.002Z,20.80
2023-02-15T01:06:17.698Z,20.80
2023-02-15T01:08:46.014Z,20.80
2023-02-15T01:11:15.490Z,20.80
2023-02-15T01:13:42.511Z,20.80
2023-02-15T01:16:09.628Z,20.80
2023-02-15T01:18:36.746Z,20.80
2023-02-15T01:21:14.675Z,20.80
2023-02-15T01:23:42.994Z,20.80
2023-02-15T01:26:10.379Z,20.80
2023-02-15T01:28:37.828Z,20.80
2023-02-15T01:31:18.268Z,20.80
2023-02-15T01:33:45.651Z,20.80
2023-02-15T01:36:12.410Z,20.80
2023-02-15T01:38:40.735Z,20.80
2023-02-15T01:41:25.523Z,20.80
2023-02-15T01:43:55.768Z,20.80
2023-02-15T01:46:35.829Z,20.70
2023-02-15T01:49:10.725Z,20.70
2023-02-15T01:51:38.858Z,20.70
2023-02-15T01:54:21.379Z,20.70
2023-02-15T01:56:48.657Z,20.70
2023-02-15T01:59:20.786Z,20.70
2023-02-15T02:01:47.725Z,20.70
2023-02-15T02:04:19.700Z,20.70
2023-02-15T02:06:48.892Z,20.70
2023-02-15T02:09:15.782Z,20.70
2023-02-15T02:11:44.332Z,20.70
2023-02-15T02:14:11.126Z,20.70
2023-02-15T02:17:02.407Z,20.70
2023-02-15T02:20:00.272Z,20.70
2023-02-15T02:23:07.832Z,20.70
2023-02-15T02:26:06.559Z,20.70
2023-02-15T02:28:58.777Z,20.70
2023-02-15T02:31:49.818Z,20.70
2023-02-15T02:34:30.808Z,20.70
2023-02-15T02:37:07.687Z,20.60
2023-02-15T02:39:43.183Z,20.70
2023-02-15T02:42:33.853Z,20.70
2023-02-15T02:45:06.407Z,20.60
2023-02-15T02:47:49.731Z,20.70
2023-02-15T02:50:23.688Z,20.60
2023-02-15T02:52:52.400Z,20.60
2023-02-15T02:55:21.915Z,20.60
2023-02-15T02:57:56.617Z,20.60
2023-02-15T03:00:25.606Z,20.60
2023-02-15T03:02:59.718Z,20.60
2023-02-15T03:05:29.898Z,20.60
2023-02-15T03:07:57.963Z,20.60
2023-02-15T03:10:25.856Z,20.60
2023-02-15T03:12:53.313Z,20.60
2023-02-15T03:15:23.939Z,20.60
2023-02-15T03:17:58.893Z,20.60
2023-02-15T03:20:32.265Z,20.60
2023-02-15T03:23:04.256Z,20.60
2023-02-15T03:25:33.794Z,20.60
2023-02-15T03:28:08.373Z,20.60
2023-02-15T03:30:36.951Z,20.60
2023-02-15T03:33:05.657Z,20.60
2023-02-15T03:35:44.856Z,20.60
2023-02-15T03:38:18.256Z,20.60
2023-02-15T03:41:06.226Z,20.60
2023-02-15T03:43:55.464Z,20.60
2023-02-15T03:46:28.838Z,20.60
2023-02-15T03:49:09.744Z,20.60
2023-02-15T03:51:40.318Z,20.60
2023-02-15T03:54:11.491Z,20.60
2023-02-15T03:56:41.207Z,20.60
2023-02-15T03:59:26.954Z,20.60
2023-02-15T04:02:11.788Z,20.60
2023-02-15T04:04:42.508Z,20.60
2023-02-15T04:07:10.308Z,20.60
2023-02-15T04:09:55.586Z,20.60
2023-02-15T04:12:22.300Z,20.60
2023-02-15T04:15:07.402Z,20.60
2023-02-15T04:17:34.505Z,20.60
2023-02-15T04:20:19.538Z,20.60
2023-02-15T04:23:05.100Z,20.60
2023-02-15T04:25:31.730Z,20.50
2023-02-15T04:27:58.329Z,20.60
2023-02-15T04:30:27.409Z,20.50
2023-02-15T04:32:56.305Z,20.50
2023-02-15T04:35:23.412Z,20.50
2023-02-15T04:37:50.040Z,20.50
2023-02-15T04:40:19.494Z,20.60
2023-02-15T04:42:49.379Z,20.60
2023-02-15T04:45:16.082Z,20.50
2023-02-15T04:47:42.719Z,20.60
2023-02-15T04:50:09.768Z,20.60
2023-02-15T04:52:37.092Z,20.60
2023-02-15T04:55:03.992Z,20.60
2023-02-15T04:57:30.583Z,20.60
2023-02-15T04:59:58.089Z,20.50
2023-02-15T05:02:24.659Z,20.50
2023-02-15T05:04:51.350Z,20.60
2023-02-15T05:07:18.602Z,20.60
2023-02-15T05:09:45.216Z,20.50
2023-02-15T05:12:11.881Z,20.50
2023-02-15T05:14:38.500Z,20.60
2023-02-15T05:17:06.245Z,20.60
2023-02-15T05:19:33.163Z,20.60
2023-02-15T05:22:00.250Z,20.60
2023-02-15T05:24:45.747Z,20.50
2023-02-15T05:27:31.069Z,20.60
2023-02-15T05:29:57.840Z,20.60
2023-02-15T05:32:24.821Z,20.60
2023-02-15T05:34:51.606Z,20.60
2023-02-15T05:37:18.234Z,20.60
2023-02-15T05:39:44.881Z,20.60
2023-02-15T05:42:11.491Z,20.60
2023-02-15T05:44:38.083Z,20.60
2023-02-15T05:47:05.450Z,20.50
2023-02-15T05:49:32.143Z,20.60
2023-02-15T05:51:58.764Z,20.50
2023-02-15T05:54:25.398Z,20.60
2023-02-15T05:56:51.981Z,20.60
2023-02-15T05:59:18.624Z,20.60
2023-02-15T06:01:45.248Z,20.60
2023-02-15T06:04:11.860Z,20.60
2023-02-15T06:06:38.462Z,20.60
2023-02-15T06:09:05.176Z,20.60
2023-02-15T06:11:31.817Z,20.60
2023-02-15T06:13:58.523Z,20.60
2023-02-15T06:16:25.408Z,20.60
2023-02-15T06:18:53.765Z,20.60
2023-02-15T06:21:20.453Z,20.60
2023-02-15T06:23:47.089Z,20.50
2023-02-15T06:26:13.660Z,20.60
2023-02-15T06:28:42.068Z,20.60
2023-02-15T06:31:08.876Z,20.60
2023-02-15T06:33:35.796Z,20.70
2023-02-15T06:36:03.060Z,20.70
2023-02-15T06:38:30.264Z,20.60
2023-02-15T06:40:56.942Z,20.60
2023-02-15T06:43:23.639Z,20.60
2023-02-15T06:45:50.373Z,20.60
2023-02-15T06:48:17.013Z,20.60
2023-02-15T06:50:43.760Z,20.60
2023-02-15T06:53:10.454Z,20.60
2023-02-15T06:55:37.169Z,20.60
2023-02-15T06:58:03.838Z,20.60
2023-02-15T07:00:30.409Z,20.50
2023-02-15T07:02:59.253Z,20.50
2023-02-15T07:05:31.604Z,20.60
2023-02-15T07:08:01.402Z,20.60
2023-02-15T07:10:28.397Z,20.50
2023-02-15T07:12:55.158Z,20.50
2023-02-15T07:15:22.879Z,20.50
2023-02-15T07:17:50.267Z,20.50
2023-02-15T07:20:20.245Z,20.50
2023-02-15T07:22:47.430Z,20.60
2023-02-15T07:25:14.545Z,20.60
2023-02-15T07:27:41.618Z,20.50
2023-02-15T07:30:10.985Z,20.50
2023-02-15T07:32:37.713Z,20.50
2023-02-15T07:35:04.602Z,20.50
2023-02-15T07:37:31.261Z,20.50
2023-02-15T07:39:57.881Z,20.50
2023-02-15T07:42:24.550Z,20.50
2023-02-15T07:44:51.207Z,20.50
2023-02-15T07:47:17.848Z,20.50
2023-02-15T07:49:44.436Z,20.50
2023-02-15T07:52:11.049Z,20.40
2023-02-15T07:54:37.662Z,20.50
2023-02-15T07:57:04.363Z,20.40
2023-02-15T07:59:30.949Z,20.40
2023-02-15T08:01:58.154Z,20.50
2023-02-15T08:04:25.258Z,20.40
2023-02-15T08:06:55.213Z,20.40
2023-02-15T08:09:22.245Z,20.40
2023-02-15T08:11:49.226Z,20.40
2023-02-15T08:14:18.543Z,20.40
2023-02-15T08:16:53.993Z,20.40
2023-02-15T08:19:29.331Z,20.40
2023-02-15T08:21:59.945Z,20.40
2023-02-15T08:24:29.173Z,20.40
2023-02-15T08:26:56.286Z,20.40
2023-02-15T08:29:32.855Z,20.40
2023-02-15T08:32:06.057Z,20.30
2023-02-15T08:34:36.759Z,20.40
2023-02-15T08:37:03.892Z,20.40
2023-02-15T08:39:30.612Z,20.40
2023-02-15T08:41:57.248Z,20.40
2023-02-15T08:44:23.858Z,20.30
2023-02-15T08:46:51.106Z,20.30
2023-02-15T08:49:20.387Z,20.30
2023-02-15T08:51:47.899Z,20.30
2023-02-15T08:54:17.709Z,20.30
2023-02-15T08:56:45.715Z,20.30
2023-02-15T08:59:16.033Z,20.30
2023-02-15T09:01:43.485Z,20.30
2023-02-15T09:04:10.732Z,20.30
2023-02-15T09:06:41.490Z,20.30
2023-02-15T09:09:09.244Z,20.30
2023-02-15T09:11:38.808Z,20.30
2023-02-15T09:14:21.210Z,20.30
2023-02-15T09:16:50.256Z,20.30
2023-02-15T09:19:18.363Z,20.30
2023-02-15T09:21:45.543Z,20.30
2023-02-15T09:24:14.244Z,20.30
2023-02-15T09:26:44.001Z,20.30
2023-02-15T09:29:12.314Z,20.30
2023-02-15T09:31:45.548Z,20.30
2023-02-15T09:34:14.649Z,20.30
2023-02-15T09:36:42.055Z,20.20
2023-02-15T09:39:13.125Z,20.20
2023-02-15T09:42:10.733Z,20.30
2023-02-15T09:44:40.318Z,20.30
2023-02-15T09:47:44.036Z,20.30
2023-02-15T09:50:33.854Z,20.30
2023-02-15T09:53:20.556Z,20.20
2023-02-15T09:56:00.575Z,20.20
2023-02-15T09:58:35.736Z,20.20
2023-02-15T10:01:25.758Z,20.20
2023-02-15T10:04:22.448Z,20.20
2023-02-15T10:07:07.826Z,20.20
2023-02-15T10:09:51.393Z,20.20
2023-02-15T10:12:38.321Z,20.20
2023-02-15T10:15:13.582Z,20.20
2023-02-15T10:18:01.667Z,20.20
2023-02-15T10:20:43.360Z,20.20
2023-02-15T10:23:54.347Z,20.20
2023-02-15T10:26:35.440Z,20.20
2023-02-15T10:29:37.405Z,20.20
2023-02-15T10:32:30.262Z,20.20
2023-02-15T10:35:26.966Z,20.20
2023-02-15T10:38:05.369Z,20.20
2023-02-15T10:41:09.499Z,20.20
2023-02-15T10:43:57.484Z,20.20
2023-02-15T10:46:34.457Z,20.20
2023-02-15T10:49:19.760Z,20.20
2023-02-15T10:52:10.024Z,20.20
2023-02-15T10:54:57.715Z,20.20
2023-02-15T10:57:34.532Z,20.20
2023-02-15T11:00:12.630Z,20.20
2023-02-15T11:02:54.975Z,20.20
2023-02-15T11:06:05.492Z,20.10
2023-02-15T11:08:37.928Z,20.20
2023-02-15T11:11:08.905Z,20.20
2023-02-15T11:13:49.537Z,20.20
2023-02-15T11:16:25.275Z,20.20
2023-02-15T11:19:10.868Z,20.10
2023-02-15T11:21:45.537Z,20.10
2023-02-15T11:24:15.656Z,20.10
2023-02-15T11:26:44.136Z,20.10
2023-02-15T11:29:23.882Z,20.10
2023-02-15T11:31:55.360Z,20.10
2023-02-15T11:34:26.852Z,20.10
2023-02-15T11:36:56.648Z,20.10
2023-02-15T11:39:29.383Z,20.10
2023-02-15T11:42:01.025Z,20.10
2023-02-15T11:44:35.682Z,20.10
2023-02-15T11:47:03.514Z,20.10
2023-02-15T11:49:33.942Z,20.10
2023-02-15T11:52:04.937Z,20.10
2023-02-15T11:54:37.352Z,20.10
2023-02-15T11:57:34.630Z,20.10
2023-02-15T12:00:26.537Z,20.10
2023-02-15T12:02:56.528Z,20.10
2023-02-15T12:05:25.771Z,20.10
2023-02-15T12:08:15.904Z,20.10
2023-02-15T12:10:54.184Z,20.10
2023-02-15T12:13:21.949Z,20.00
2023-02-15T12:15:55.022Z,20.00
2023-02-15T12:18:45.303Z,20.10
2023-02-15T12:21:24.473Z,20.00
2023-02-15T12:23:58.096Z,20.00
2023-02-15T12:26:30.608Z,20.10
2023-02-15T12:29:02.995Z,20.00
2023-02-15T12:31:37.056Z,20.00
2023-02-15T12:34:28.206Z,20.00
2023-02-15T12:36:58.919Z,20.00
2023-02-15T12:39:30.633Z,20.10
2023-02-15T12:42:01.378Z,20.00
2023-02-15T12:44:30.681Z,20.00
2023-02-15T12:47:04.593Z,20.00
2023-02-15T12:49:33.928Z,20.00
2023-02-15T12:52:03.896Z,20.00
2023-02-15T12:54:42.086Z,20.10
2023-02-15T12:57:16.547Z,20.00
2023-02-15T12:59:57.992Z,20.00
2023-02-15T13:02:46.530Z,20.00
2023-02-15T13:05:33.553Z,20.00
2023-02-15T13:08:15.115Z,20.00
2023-02-15T13:11:00.834Z,20.00
2023-02-15T13:13:51.292Z,20.00
2023-02-15T13:16:25.976Z,20.00
2023-02-15T13:18:53.539Z,20.00
2023-02-15T13:21:27.706Z,20.00
2023-02-15T13:24:08.675Z,20.10
2023-02-15T13:26:36.388Z,20.00
2023-02-15T13:29:12.886Z,20.00
2023-02-15T13:31:40.722Z,20.00
2023-02-15T13:34:23.390Z,20.00
2023-02-15T13:37:13.198Z,20.00
2023-02-15T13:39:49.189Z,20.00
2023-02-15T13:42:25.884Z,20.00
2023-02-15T13:45:23.175Z,20.00
2023-02-15T13:47:52.632Z,20.00
2023-02-15T13:50:33.970Z,20.00
2023-02-15T13:53:43.494Z,20.00
2023-02-15T13:56:26.509Z,20.00
2023-02-15T13:59:25.838Z,20.00
2023-02-15T14:02:04.248Z,20.00
2023-02-15T14:04:51.989Z,20.00
2023-02-15T14:07:37.893Z,20.00
2023-02-15T14:10:35.007Z,20.00
2023-02-15T14:13:10.814Z,20.00
2023-02-15T14:15:52.290Z,20.00
2023-02-15T14:18:43.501Z,20.00
2023-02-15T14:21:10.166Z,20.00
2023-02-15T14:24:09.270Z,20.00
2023-02-15T14:27:04.030Z,20.00
2023-02-15T14:29:55.153Z,20.10
2023-02-15T14:32:39.643Z,20.00
2023-02-15T14:35:15.191Z,20.10
2023-02-15T14:37:53.251Z,20.10
2023-02-15T14:40:50.689Z,20.10
2023-02-15T14:43:43.162Z,20.10
2023-02-15T14:46:39.754Z,20.10
2023-02-15T14:49:18.223Z,20.10
2023-02-15T14:51:46.380Z,20.10
2023-02-15T14:54:21.747Z,20.10
2023-02-15T14:57:03.734Z,20.10
2023-02-15T14:59:58.467Z,20.10
2023-02-15T15:02:39.891Z,20.10
2023-02-15T15:05:14.900Z,20.20
2023-02-15T15:07:46.572Z,20.10
2023-02-15T15:10:18.656Z,20.20
2023-02-15T15:12:53.403Z,20.20
2023-02-15T15:15:31.869Z,20.20
2023-02-15T15:18:08.943Z,20.20
2023-02-15T15:20:51.568Z,20.20
2023-02-15T15:23:21.968Z,20.20
2023-02-15T15:25:56.452Z,20.20
2023-02-15T15:28:35.324Z,20.20
2023-02-15T15:31:26.149Z,20.20
2023-02-15T15:34:15.164Z,20.10
2023-02-15T15:37:14.836Z,19.90
2023-02-15T15:39:56.313Z,20.00
2023-02-15T15:42:49.763Z,20.00
2023-02-15T15:45:45.441Z,20.00
2023-02-15T15:48:29.690Z,20.00
2023-02-15T15:51:21.280Z,20.00
2023-02-15T15:53:53.990Z,20.00
2023-02-15T15:56:24.423Z,20.00
2023-02-15T15:58:58.892Z,20.00
2023-02-15T16:01:30.047Z,20.00
2023-02-15T16:03:58.983Z,20.00
2023-02-15T16:06:32.284Z,20.00
2023-02-15T16:09:11.962Z,20.00
2023-02-15T16:11:42.055Z,19.90
2023-02-15T16:14:41.527Z,20.00
2023-02-15T16:17:17.284Z,19.90
2023-02-15T16:19:45.058Z,19.90
2023-02-15T16:22:22.674Z,19.90
2023-02-15T16:25:19.719Z,19.90
2023-02-15T16:27:47.820Z,19.90
2023-02-15T16:30:26.929Z,19.90
2023-02-15T16:33:05.366Z,19.90
2023-02-15T16:35:32.368Z,19.90
2023-02-15T16:37:59.049Z,19.90
2023-02-15T16:40:26.161Z,19.80
2023-02-15T16:43:02.172Z,19.90
2023-02-15T16:45:32.840Z,19.80
2023-02-15T16:48:06.359Z,19.80
2023-02-15T16:50:38.852Z,19.80
2023-02-15T16:53:15.010Z,19.80
2023-02-15T16:55:43.311Z,19.80
2023-02-15T16:58:16.979Z,19.80
2023-02-15T17:00:44.137Z,19.80
2023-02-15T17:03:13.489Z,19.60
2023-02-15T17:05:49.225Z,17.70
2023-02-15T17:08:18.719Z,16.70
2023-02-15T17:11:13.632Z,17.50
2023-02-15T17:14:00.314Z,18.40
2023-02-15T17:16:34.130Z,18.80
2023-02-15T17:19:03.288Z,19.20
2023-02-15T17:21:33.955Z,19.30
2023-02-15T17:24:05.187Z,19.50
2023-02-15T17:26:35.627Z,19.40
2023-02-15T17:29:21.111Z,19.50
2023-02-15T17:31:53.132Z,19.60
2023-02-15T17:35:00.628Z,19.90
2023-02-15T17:37:43.999Z,19.60
2023-02-15T17:40:21.618Z,19.70
2023-02-15T17:42:48.618Z,19.70
2023-02-15T17:45:15.938Z,19.90
2023-02-15T17:47:43.120Z,19.70
2023-02-15T17:50:21.985Z,20.00
2023-02-15T17:52:48.743Z,19.90
2023-02-15T17:55:36.476Z,20.10
2023-02-15T17:58:14.531Z,19.90
2023-02-15T18:01:05.459Z,20.30
2023-02-15T18:03:58.493Z,20.60
2023-02-15T18:06:44.305Z,20.20
2023-02-15T18:09:31.890Z,20.10
2023-02-15T18:11:58.920Z,19.80
2023-02-15T18:14:26.265Z,20.00
2023-02-15T18:16:53.211Z,20.00
2023-02-15T18:19:23.090Z,20.70
2023-02-15T18:21:52.405Z,20.20
2023-02-15T18:24:24.769Z,20.40
2023-02-15T18:26:52.661Z,20.50
2023-02-15T18:29:20.095Z,20.40
2023-02-15T18:31:51.416Z,20.30
2023-02-15T18:34:29.345Z,20.40
2023-02-15T18:36:57.253Z,20.20
2023-02-15T18:39:45.576Z,20.30
2023-02-15T18:42:24.854Z,20.20
2023-02-15T18:44:55.590Z,20.40
2023-02-15T18:47:22.375Z,20.90
2023-02-15T18:49:48.976Z,20.70
2023-02-15T18:52:22.101Z,20.70
2023-02-15T18:54:59.629Z,21.30
2023-02-15T18:57:27.974Z,20.70
2023-02-15T18:59:54.633Z,20.70
2023-02-15T19:02:21.355Z,20.80
2023-02-15T19:04:48.099Z,20.80
2023-02-15T19:07:26.725Z,20.90
2023-02-15T19:09:57.034Z,20.90
2023-02-15T19:12:23.872Z,20.90
2023-02-15T19:14:53.621Z,20.90
2023-02-15T19:17:21.953Z,20.90
2023-02-15T19:19:49.632Z,20.90
2023-02-15T19:22:23.035Z,20.90
2023-02-15T19:24:51.458Z,20.90
2023-02-15T19:27:35.394Z,20.90
2023-02-15T19:30:05.287Z,21.00
2023-02-15T19:32:32.001Z,21.00
2023-02-15T19:34:58.756Z,21.00
2023-02-15T19:37:42.527Z,21.00
2023-02-15T19:40:27.576Z,21.00
2023-02-15T19:42:54.512Z,21.10
2023-02-15T19:45:23.936Z,21.10
2023-02-15T19:47:52.322Z,20.90
2023-02-15T19:50:22.089Z,20.70
2023-02-15T19:52:48.929Z,20.70
2023-02-15T19:55:24.463Z,20.70
2023-02-15T19:57:52.529Z,20.70
2023-02-15T20:00:22.819Z,20.80
2023-02-15T20:02:49.817Z,20.70
2023-02-15T20:05:16.544Z,20.70
2023-02-15T20:07:47.393Z,20.80
2023-02-15T20:10:34.889Z,20.80
2023-02-15T20:13:02.666Z,20.80
2023-02-15T20:15:34.918Z,20.80
2023-02-15T20:18:03.978Z,20.80
2023-02-15T20:20:46.954Z,20.80
2023-02-15T20:23:29.040Z,20.80
2023-02-15T20:25:59.662Z,20.80
2023-02-15T20:28:29.292Z,20.90
2023-02-15T20:30:56.655Z,20.80
2023-02-15T20:33:23.550Z,20.80
2023-02-15T20:35:50.923Z,20.90
2023-02-15T20:38:25.471Z,20.90
2023-02-15T20:41:12.123Z,20.90
2023-02-15T20:43:38.885Z,20.90
2023-02-15T20:46:06.512Z,20.90
2023-02-15T20:48:33.456Z,20.90
2023-02-15T20:51:00.307Z,20.90
2023-02-15T20:53:28.365Z,20.90
2023-02-15T20:55:55.734Z,20.90
2023-02-15T20:58:28.812Z,21.00
2023-02-15T21:00:57.993Z,20.90
2023-02-15T21:03:30.212Z,20.90
2023-02-15T21:05:58.224Z,20.90
2023-02-15T21:08:26.165Z,21.00
2023-02-15T21:10:53.613Z,20.90
2023-02-15T21:13:24.854Z,21.00
2023-02-15T21:15:53.131Z,21.00
2023-02-15T21:18:23.483Z,21.00
2023-02-15T21:20:52.796Z,21.00
2023-02-15T21:23:29.265Z,21.00
2023-02-15T21:25:57.220Z,21.00
2023-02-15T21:28:27.021Z,21.00
2023-02-15T21:30:55.364Z,21.00
2023-02-15T21:33:22.012Z,21.00
2023-02-15T21:35:51.554Z,21.00
2023-02-15T21:38:21.924Z,20.90
2023-02-15T21:40:49.677Z,20.70
2023-02-15T21:43:43.145Z,20.80
2023-02-15T21:46:37.788Z,20.70
2023-02-15T21:49:07.092Z,20.70
2023-02-15T21:51:53.214Z,20.70
2023-02-15T21:54:20.852Z,20.60
2023-02-15T21:56:48.726Z,20.60
2023-02-15T21:59:17.830Z,20.60
2023-02-15T22:01:49.651Z,20.60
2023-02-15T22:04:28.396Z,20.60
2023-02-15T22:06:55.783Z,20.70
2023-02-15T22:09:24.850Z,20.70
2023-02-15T22:11:52.409Z,20.70
2023-02-15T22:14:36.304Z,20.70
2023-02-15T22:17:30.381Z,20.70
2023-02-15T22:19:57.701Z,20.70
2023-02-15T22:22:24.437Z,20.70
2023-02-15T22:24:51.019Z,20.60
2023-02-15T22:27:21.819Z,20.70
2023-02-15T22:29:49.869Z,20.70
2023-02-15T22:32:21.747Z,20.70
2023-02-15T22:34:48.853Z,20.80
2023-02-15T22:37:15.669Z,20.80
2023-02-15T22:39:42.438Z,21.00
2023-02-15T22:42:27.373Z,20.90
2023-02-15T22:44:55.863Z,20.90
2023-02-15T22:47:28.133Z,20.90
2023-02-15T22:49:55.419Z,20.90
2023-02-15T22:52:22.130Z,20.90
2023-02-15T22:54:48.731Z,20.90
2023-02-15T22:57:29.123Z,20.90
2023-02-15T22:59:56.567Z,20.90
2023-02-15T23:02:23.183Z,20.90
2023-02-15T23:04:49.871Z,20.90
2023-02-15T23:07:18.894Z,20.90
2023-02-15T23:09:46.386Z,20.90
2023-02-15T23:12:24.248Z,20.90
2023-02-15T23:14:51.619Z,20.90
2023-02-15T23:17:18.402Z,20.90
2023-02-15T23:19:45.054Z,20.90
2023-02-15T23:22:18.433Z,20.90
2023-02-15T23:24:52.409Z,20.90
2023-02-15T23:27:37.959Z,20.90
2023-02-15T23:30:14.883Z,20.80
2023-02-15T23:32:41.511Z,20.80
2023-02-15T23:35:18.694Z,20.90
2023-02-15T23:37:45.574Z,20.80
2023-02-15T23:40:35.434Z,20.80
2023-02-15T23:43:02.413Z,20.80
2023-02-15T23:45:29.421Z,20.80
2023-02-15T23:48:15.108Z,20.80
2023-02-15T23:50:41.822Z,20.80
2023-02-15T23:53:09.774Z,20.80
2023-02-15T23:55:39.021Z,20.80
2023-02-15T23:58:07.155Z,20.80
